Time;durP1;ratioP1;P1;durP2;ratioP2;P2;SDS_P1;SDS_P2;PMS_P1;PMS_P2;Temp;Humidity;BMP_temperature;BMP_pressure;BME280_temperature;BME280_humidity;BME280_pressure;Samples;Min_cycle;Max_cycle;Signal;HPM_P1;HPM_P2
2023/10/18 00:01:23;;;;;;;12.07;8.10;;;;;;;5.45;100.00;101199.63;5026480;28;20041;-73
2023/10/18 00:03:48;;;;;;;15.80;9.18;;;;;;;5.44;100.00;101193.34;5025382;28;20076;-73
2023/10/18 00:06:18;;;;;;;13.68;8.32;;;;;;;5.43;100.00;101188.91;5031101;28;20049;-73
2023/10/18 00:08:45;;;;;;;13.68;7.68;;;;;;;5.42;100.00;101187.16;5046377;28;20044;-73
2023/10/18 00:11:11;;;;;;;15.10;8.38;;;;;;;5.39;100.00;101187.28;5048641;28;20489;-73
2023/10/18 00:13:37;;;;;;;12.95;7.35;;;;;;;5.38;100.00;101174.75;5049432;28;20124;-74
2023/10/18 00:16:05;;;;;;;16.35;8.23;;;;;;;5.41;100.00;101182.72;5037701;28;20105;-74
2023/10/18 00:18:30;;;;;;;15.40;9.10;;;;;;;5.41;100.00;101179.13;5029416;28;20025;-73
2023/10/18 00:21:05;;;;;;;13.48;8.05;;;;;;;5.40;100.00;101175.56;5030168;28;20087;-73
2023/10/18 00:23:31;;;;;;;12.70;8.43;;;;;;;5.42;100.00;101181.78;5030465;28;20047;-73
2023/10/18 00:26:00;;;;;;;13.77;8.75;;;;;;;5.42;100.00;101181.78;5028751;28;20044;-73
2023/10/18 00:28:27;;;;;;;15.50;8.48;;;;;;;5.41;100.00;101177.31;5030022;28;20044;-72
2023/10/18 00:30:52;;;;;;;13.20;8.60;;;;;;;5.41;100.00;101180.03;5038948;28;20045;-72
2023/10/18 00:33:19;;;;;;;11.63;7.72;;;;;;;5.38;100.00;101178.31;5028785;28;20512;-73
2023/10/18 00:35:47;;;;;;;13.25;7.97;;;;;;;5.37;100.00;101171.19;5029627;28;20364;-73
2023/10/18 00:38:16;;;;;;;16.48;9.25;;;;;;;5.34;100.00;101165.03;5043721;28;20033;-73
2023/10/18 00:40:45;;;;;;;12.55;7.45;;;;;;;5.33;100.00;101174.97;5029504;28;20505;-73
2023/10/18 00:45:44;;;;;;;12.18;7.32;;;;;;;5.34;100.00;101175.84;5028420;28;20038;-73
2023/10/18 00:48:11;;;;;;;13.55;7.82;;;;;;;5.34;100.00;101179.41;5045418;28;20030;-73
2023/10/18 00:50:42;;;;;;;13.27;8.20;;;;;;;5.33;100.00;101174.97;5028980;28;20374;-73
2023/10/18 00:53:08;;;;;;;11.80;7.88;;;;;;;5.32;100.00;101170.53;5047733;28;20542;-73
2023/10/18 00:55:33;;;;;;;18.90;8.25;;;;;;;5.32;100.00;101166.97;5041571;28;20420;-73
2023/10/18 00:58:05;;;;;;;14.50;8.13;;;;;;;5.31;100.00;101160.66;5035590;28;20439;-73
2023/10/18 01:00:31;;;;;;;16.27;7.90;;;;;;;5.32;100.00;101156.16;5046615;28;20037;-73
2023/10/18 01:02:59;;;;;;;11.60;7.47;;;;;;;5.30;100.00;101150.81;5028630;28;20480;-74
2023/10/18 01:05:25;;;;;;;13.80;7.30;;;;;;;5.30;100.00;101156.22;5027668;28;20033;-73
2023/10/18 01:07:53;;;;;;;12.23;7.57;;;;;;;5.29;100.00;101149.06;5012212;28;20083;-73
2023/10/18 01:10:23;;;;;;;11.15;7.65;;;;;;;5.27;100.00;101141.97;5028148;28;20049;-73
2023/10/18 01:12:51;;;;;;;12.60;8.10;;;;;;;5.28;100.00;101136.53;5027304;28;20068;-73
2023/10/18 01:15:27;;;;;;;11.25;7.93;;;;;;;5.28;100.00;101132.97;5029025;28;20112;-73
2023/10/18 01:17:55;;;;;;;11.27;7.15;;;;;;;5.28;100.00;101130.28;5029831;28;20033;-73
2023/10/18 01:20:37;;;;;;;17.90;8.23;;;;;;;5.29;100.00;101132.00;5028545;28;20104;-73
2023/10/18 01:23:03;;;;;;;15.50;7.68;;;;;;;5.29;100.00;101129.31;5029426;28;20037;-74
2023/10/18 01:25:29;;;;;;;10.20;6.78;;;;;;;5.29;100.00;101124.78;5043859;28;20030;-73
2023/10/18 01:27:55;;;;;;;12.52;7.93;;;;;;;5.29;100.00;101115.84;5028091;28;20423;-73
2023/10/18 01:30:21;;;;;;;12.77;7.95;;;;;;;5.26;100.00;101106.03;5043066;28;20063;-73
2023/10/18 01:32:46;;;;;;;11.38;8.25;;;;;;;5.24;100.00;101110.66;5028401;28;20136;-73
2023/10/18 01:35:13;;;;;;;12.40;7.05;;;;;;;5.24;100.00;101105.25;5026663;28;20041;-73
2023/10/18 01:37:39;;;;;;;14.60;8.27;;;;;;;5.24;100.00;101107.06;5041115;28;20029;-73
2023/10/18 01:42:56;;;;;;;11.80;7.00;;;;;;;5.23;100.00;101092.72;5028331;28;20045;-73
2023/10/18 01:45:22;;;;;;;11.57;7.90;;;;;;;5.23;100.00;101086.44;5044813;28;20040;-74
2023/10/18 01:47:50;;;;;;;12.57;7.25;;;;;;;5.23;100.00;101087.31;5034436;28;20021;-73
2023/10/18 01:50:18;;;;;;;13.63;7.55;;;;;;;5.20;100.00;101079.38;5023826;28;20033;-73
2023/10/18 01:52:44;;;;;;;11.00;7.35;;;;;;;5.21;100.00;101075.72;5033764;28;20056;-73
2023/10/18 01:55:12;;;;;;;13.07;8.07;;;;;;;5.21;100.00;101078.41;5028789;28;20128;-73
2023/10/18 01:57:38;;;;;;;13.93;8.10;;;;;;;5.20;100.00;101068.56;5034033;28;20025;-73
2023/10/18 02:00:05;;;;;;;12.50;6.95;;;;;;;5.20;100.00;101062.31;5047559;28;20546;-73
2023/10/18 02:02:37;;;;;;;;;;;;;;;5.21;100.00;101053.25;5028826;28;20405;-73
2023/10/18 02:05:07;;;;;;;11.93;7.88;;;;;;;5.16;100.00;101052.59;5027347;28;19943;-74
2023/10/18 02:07:33;;;;;;;12.98;7.20;;;;;;;5.18;100.00;101056.13;5036387;28;20037;-74
2023/10/18 02:09:58;;;;;;;13.00;7.93;;;;;;;5.18;100.00;101051.59;5045669;28;20037;-73
2023/10/18 02:12:27;;;;;;;11.98;7.70;;;;;;;5.17;100.00;101046.25;5038733;28;20107;-73
2023/10/18 02:14:55;;;;;;;13.95;8.30;;;;;;;5.16;100.00;101052.59;5026573;28;20021;-74
2023/10/18 02:17:21;;;;;;;11.60;7.68;;;;;;;5.14;100.00;101052.69;5027716;28;20112;-73
2023/10/18 02:19:47;;;;;;;14.63;8.13;;;;;;;5.12;100.00;101050.03;5026149;28;20369;-73
2023/10/18 02:22:13;;;;;;;15.55;7.80;;;;;;;5.08;100.00;101045.78;5036619;28;20040;-73
2023/10/18 02:24:42;;;;;;;13.30;8.88;;;;;;;5.15;100.00;101040.94;5042774;28;20128;-73
2023/10/18 02:27:09;;;;;;;12.55;7.45;;;;;;;5.14;100.00;101035.63;5045663;28;20070;-73
2023/10/18 02:29:35;;;;;;;14.18;8.05;;;;;;;5.16;100.00;101036.44;5028042;28;20100;-73
2023/10/18 02:32:46;;;;;;;11.70;7.72;;;;;;;5.15;100.00;101034.69;5026889;28;20120;-73
2023/10/18 02:34:53;;;;;;;11.15;7.57;;;;;;;5.14;100.00;101030.25;5029205;28;20064;-73
2023/10/18 02:37:24;;;;;;;13.43;8.15;;;;;;;5.13;100.00;101029.38;5027005;28;20035;-73
2023/10/18 02:39:49;;;;;;;14.35;8.43;;;;;;;5.09;100.00;101031.34;5026651;28;20041;-73
2023/10/18 02:42:15;;;;;;;11.82;7.75;;;;;;;5.10;100.00;101034.91;5026358;28;20107;-73
2023/10/18 02:44:42;;;;;;;17.20;8.02;;;;;;;5.08;100.00;101026.00;5009773;28;20029;-73
2023/10/18 02:47:16;;;;;;;12.40;7.70;;;;;;;5.06;100.00;101017.97;5024892;28;20131;-74
2023/10/18 02:49:45;;;;;;;12.02;7.53;;;;;;;5.08;100.00;101023.28;5045582;28;20076;-73
2023/10/18 02:52:11;;;;;;;12.98;8.05;;;;;;;5.08;100.00;101020.59;5035829;28;20029;-73
2023/10/18 02:54:39;;;;;;;12.30;7.53;;;;;;;5.05;100.00;101012.69;5040504;28;20116;-73
2023/10/18 02:57:05;;;;;;;14.73;7.53;;;;;;;5.05;100.00;101007.28;5046828;28;20439;-73
2023/10/18 02:59:31;;;;;;;14.02;7.55;;;;;;;5.04;100.00;101013.63;5029346;28;20033;-73
2023/10/18 03:01:57;;;;;;;11.25;8.07;;;;;;;5.05;100.00;101009.97;5037839;28;20472;-73
2023/10/18 03:04:26;;;;;;;14.77;8.38;;;;;;;5.04;100.00;101006.41;5041345;28;20025;-73
2023/10/18 03:06:52;;;;;;;10.05;6.28;;;;;;;5.05;100.00;101001.88;5029639;28;20037;-73
2023/10/18 03:09:27;;;;;;;14.75;8.52;;;;;;;5.03;100.00;100988.47;5027128;28;20531;-73
2023/10/18 03:11:54;;;;;;;12.52;8.02;;;;;;;5.02;100.00;100992.09;5027536;28;20037;-73
2023/10/18 03:14:39;;;;;;;14.40;7.53;;;;;;;5.00;100.00;100982.34;5025938;28;20022;-73
2023/10/18 03:19:50;;;;;;;12.68;7.47;;;;;;;5.03;100.00;100979.50;5026642;28;20470;-74
2023/10/18 03:22:20;;;;;;;12.70;7.82;;;;;;;5.05;100.00;100981.19;5036203;28;20029;-73
2023/10/18 03:24:54;;;;;;;12.80;8.23;;;;;;;5.04;100.00;100983.97;5045566;28;20128;-73
2023/10/18 03:27:20;;;;;;;12.32;7.68;;;;;;;5.03;100.00;100979.50;5044842;28;20037;-73
2023/10/18 03:29:47;;;;;;;12.52;7.40;;;;;;;4.98;100.00;100971.63;5045447;28;20036;-73
2023/10/18 03:32:19;;;;;;;13.93;8.27;;;;;;;5.00;100.00;100976.97;5031445;28;20049;-73
2023/10/18 03:34:45;;;;;;;12.45;8.30;;;;;;;5.00;100.00;100968.88;5024689;28;20033;-73
2023/10/18 03:37:24;;;;;;;21.67;8.63;;;;;;;5.00;100.00;100968.88;5024904;28;20079;-73
2023/10/18 03:39:53;;;;;;;11.20;6.70;;;;;;;4.99;100.00;100968.00;5025536;28;20033;-73
2023/10/18 03:42:32;;;;;;;11.63;7.53;;;;;;;5.00;100.00;100967.06;5029975;28;20495;-73
2023/10/18 03:45:09;;;;;;;11.80;8.00;;;;;;;5.01;100.00;100954.44;5048073;28;20632;-73
2023/10/18 03:47:37;;;;;;;14.65;8.00;;;;;;;5.01;100.00;100941.84;5043281;28;20037;-73
2023/10/18 03:50:12;;;;;;;12.23;6.63;;;;;;;5.02;100.00;100942.72;5012744;28;20109;-73
2023/10/18 03:52:38;;;;;;;14.40;7.32;;;;;;;5.02;100.00;100940.00;5043183;28;20543;-73
2023/10/18 03:57:37;;;;;;;12.77;7.55;;;;;;;5.00;100.00;100928.44;5044666;28;20029;-73
2023/10/18 04:00:37;;;;;;;11.98;8.23;;;;;;;5.04;100.00;100930.03;5045406;28;20478;-72
2023/10/18 04:03:00;;;;;;;11.70;7.07;;;;;;;5.05;100.00;100926.41;5040471;28;20076;-73
2023/10/18 04:08:02;;;;;;;14.57;8.07;;;;;;;5.05;100.00;100916.47;5041924;28;20041;-73
2023/10/18 04:10:31;;;;;;;16.15;7.35;;;;;;;5.06;100.00;100920.03;5039349;28;20802;-73
2023/10/18 04:12:56;;;;;;;13.05;8.10;;;;;;;5.06;100.00;100925.44;5038462;28;20037;-73
2023/10/18 04:15:22;;;;;;;11.15;7.10;;;;;;;5.04;100.00;100912.03;5044563;28;20606;-73
2023/10/18 04:18:03;;;;;;;12.10;7.55;;;;;;;5.08;100.00;100910.94;5038256;28;20029;-73
2023/10/18 04:20:31;;;;;;;14.57;7.55;;;;;;;5.06;100.00;100912.81;5040220;28;20037;-73
2023/10/18 04:22:57;;;;;;;13.70;7.95;;;;;;;5.07;100.00;100901.09;5038592;28;20021;-73
2023/10/18 04:25:30;;;;;;;14.07;6.85;;;;;;;5.09;100.00;100901.03;5043286;28;20408;-73
2023/10/18 04:27:59;;;;;;;12.25;7.72;;;;;;;5.09;100.00;100906.44;5040343;28;20144;-73
2023/10/18 04:30:31;;;;;;;11.65;6.88;;;;;;;5.09;100.00;100899.22;5031427;28;20068;-73
2023/10/18 04:33:00;;;;;;;13.63;7.25;;;;;;;5.10;100.00;100884.78;5037358;28;20081;-73
2023/10/18 04:35:32;;;;;;;14.35;7.65;;;;;;;5.10;100.00;100884.78;5043393;28;20437;-72
2023/10/18 04:37:58;;;;;;;12.85;6.63;;;;;;;5.13;100.00;100872.97;5038132;28;20045;-72
2023/10/18 04:40:26;;;;;;;12.63;7.75;;;;;;;5.14;100.00;100880.09;5037671;28;20433;-73
2023/10/18 04:42:55;;;;;;;17.02;7.95;;;;;;;5.13;100.00;100872.97;5039927;28;20492;-73
2023/10/18 04:45:26;;;;;;;12.65;7.53;;;;;;;5.15;100.00;100871.06;5040624;28;20040;-73
2023/10/18 04:47:58;;;;;;;11.50;7.00;;;;;;;5.15;100.00;100871.06;5040035;28;20115;-73
2023/10/18 04:50:32;;;;;;;11.85;7.47;;;;;;;5.12;100.00;100869.38;5037772;28;20043;-73
2023/10/18 04:52:59;;;;;;;11.60;7.00;;;;;;;5.14;100.00;100861.22;5038452;28;20044;-73
2023/10/18 04:55:27;;;;;;;11.10;7.30;;;;;;;5.18;100.00;100865.53;5039120;28;20136;-74
2023/10/18 04:57:53;;;;;;;10.77;7.10;;;;;;;5.16;100.00;100866.53;5036375;28;20034;-72
2023/10/18 05:00:25;;;;;;;16.10;7.50;;;;;;;5.12;100.00;100863.97;5039078;28;20488;-73
2023/10/18 05:02:58;;;;;;;13.68;7.85;;;;;;;5.15;100.00;100859.41;5044219;28;20041;-73
2023/10/18 05:05:26;;;;;;;16.02;7.72;;;;;;;5.16;100.00;100853.94;5038198;28;20104;-73
2023/10/18 05:07:55;;;;;;;12.18;7.72;;;;;;;5.18;100.00;100857.44;5037922;28;20025;-73
2023/10/18 05:10:21;;;;;;;12.30;7.70;;;;;;;5.22;100.00;100852.72;5043630;28;20123;-73
2023/10/18 05:12:53;;;;;;;14.70;6.93;;;;;;;5.22;100.00;100845.53;5046044;28;20069;-72
2023/10/18 05:15:22;;;;;;;13.32;7.20;;;;;;;5.24;100.00;100846.31;5045013;28;20109;-72
2023/10/18 05:17:50;;;;;;;14.45;7.57;;;;;;;5.24;100.00;100842.75;5028983;28;20037;-74
2023/10/18 05:22:45;;;;;;;13.73;7.70;;;;;;;5.25;99.97;100831.00;5042595;28;20033;-73
2023/10/18 05:27:59;;;;;;;10.93;6.97;;;;;;;5.28;99.39;100839.84;5049453;28;20462;-73
2023/10/18 05:31:20;;;;;;;14.68;6.80;;;;;;;5.28;99.46;100841.66;5045622;28;20057;-73
2023/10/18 05:33:47;;;;;;;12.68;7.47;;;;;;;5.26;99.22;100836.31;5041519;28;20080;-73
2023/10/18 05:41:28;;;;;;;14.38;7.00;;;;;;;5.26;99.38;100833.63;5028327;28;20420;-72
2023/10/18 05:44:05;;;;;;;11.43;7.05;;;;;;;5.27;98.98;100827.31;5028410;28;20041;-73
2023/10/18 05:46:34;;;;;;;14.85;7.60;;;;;;;5.28;99.29;100831.75;5039360;28;20041;-72
2023/10/18 05:49:01;;;;;;;11.13;6.28;;;;;;;5.30;99.18;100823.56;5047510;28;20032;-72
2023/10/18 05:51:32;;;;;;;10.43;6.40;;;;;;;5.29;98.63;100820.00;5043492;28;20023;-72
2023/10/18 05:53:59;;;;;;;11.68;6.35;;;;;;;5.29;98.50;100814.59;5031831;28;20350;-73
2023/10/18 05:56:37;;;;;;;11.35;6.95;;;;;;;5.26;98.91;100801.25;5026767;28;20045;-72
2023/10/18 06:01:49;;;;;;;11.90;7.00;;;;;;;5.23;99.20;100814.06;5038027;28;20176;-72
2023/10/18 06:04:23;;;;;;;12.65;6.78;;;;;;;5.22;99.29;100812.28;5042467;28;20132;-73
2023/10/18 06:06:55;;;;;;;13.55;7.70;;;;;;;5.23;98.64;100811.34;5026756;28;20033;-73
2023/10/18 06:09:55;;;;;;;10.27;6.13;;;;;;;5.24;98.63;100805.88;5027688;28;20449;-72
2023/10/18 06:12:14;;;;;;;10.23;6.03;;;;;;;5.25;98.78;100804.03;5025853;28;20050;-72
2023/10/18 06:14:40;;;;;;;11.30;6.68;;;;;;;5.26;98.80;100801.25;5027201;28;20017;-72
2023/10/18 06:17:12;;;;;;;14.75;6.88;;;;;;;5.27;98.57;100794.94;5035585;28;20094;-72
2023/10/18 06:19:38;;;;;;;11.43;7.28;;;;;;;5.28;98.47;100795.81;5034202;28;20768;-73
2023/10/18 06:22:28;;;;;;;10.23;6.43;;;;;;;5.28;98.62;100790.41;5029836;28;20033;-73
2023/10/18 06:25:03;;;;;;;9.85;6.38;;;;;;;5.29;98.23;100787.63;5043781;28;20045;-72
2023/10/18 06:27:38;;;;;;;11.35;6.15;;;;;;;5.30;97.92;100775.88;5046277;28;20049;-72
2023/10/18 06:30:14;;;;;;;11.10;6.55;;;;;;;5.31;98.14;100772.22;5036655;28;20041;-72
2023/10/18 06:32:44;;;;;;;14.95;7.05;;;;;;;5.33;97.73;100761.38;5039105;28;20036;-73
2023/10/18 06:35:15;;;;;;;9.68;6.00;;;;;;;5.37;97.51;100762.97;5045460;28;20162;-72
2023/10/18 06:37:41;;;;;;;10.13;6.60;;;;;;;5.38;97.76;100760.19;5048853;28;20061;-73
2023/10/18 06:40:21;;;;;;;12.13;6.68;;;;;;;5.42;96.76;100755.50;5028387;28;20102;-72
2023/10/18 06:42:47;;;;;;;12.65;6.30;;;;;;;5.44;97.06;100755.41;5035926;28;20216;-73
2023/10/18 06:45:17;;;;;;;12.52;6.53;;;;;;;5.45;97.20;100760.72;5046514;28;20496;-72
2023/10/18 06:47:46;;;;;;;11.10;6.57;;;;;;;5.45;97.25;100755.31;5028228;28;20033;-73
2023/10/18 06:50:19;;;;;;;12.93;6.85;;;;;;;5.47;96.88;100752.56;5035429;28;20056;-71
2023/10/18 06:52:44;;;;;;;8.88;5.82;;;;;;;5.49;97.03;100751.50;5037059;28;20046;-72
2023/10/18 06:55:15;;;;;;;12.23;6.50;;;;;;;5.52;96.93;100751.34;5026373;28;20021;-73
2023/10/18 06:57:42;;;;;;;13.02;6.47;;;;;;;5.56;96.54;100744.84;5027377;28;20040;-73
2023/10/18 07:00:12;;;;;;;12.48;6.60;;;;;;;5.58;96.43;100742.06;5027351;28;20026;-73
2023/10/18 07:02:38;;;;;;;12.68;6.57;;;;;;;5.60;96.14;100740.16;5043068;28;20039;-72
2023/10/18 07:05:04;;;;;;;9.93;6.05;;;;;;;5.65;96.29;100734.53;5047038;28;20021;-72
2023/10/18 07:07:31;;;;;;;10.23;5.97;;;;;;;5.68;96.10;100731.63;5034823;28;20073;-72
2023/10/18 07:09:56;;;;;;;10.48;6.47;;;;;;;5.72;95.91;100731.38;5037432;28;20043;-72
2023/10/18 07:12:28;;;;;;;8.77;6.53;;;;;;;5.74;95.41;100736.72;5047216;28;20016;-72
2023/10/18 07:14:56;;;;;;;10.90;6.78;;;;;;;5.81;95.04;100727.31;5046935;28;20041;-72
2023/10/18 07:17:24;;;;;;;12.82;7.15;;;;;;;5.85;95.55;100724.38;5028693;28;20473;-72
2023/10/18 07:19:55;;;;;;;11.55;6.18;;;;;;;5.89;94.85;100727.78;5026288;28;20048;-72
2023/10/18 07:22:27;;;;;;;13.60;6.40;;;;;;;5.94;94.41;100723.03;5036832;28;20516;-72
2023/10/18 07:24:59;;;;;;;11.00;6.22;;;;;;;6.01;95.13;100719.00;5047250;28;20090;-72
2023/10/18 07:27:29;;;;;;;11.40;6.38;;;;;;;6.07;94.09;100709.72;5047015;28;20073;-72
2023/10/18 07:30:01;;;;;;;10.02;6.30;;;;;;;6.11;94.06;100697.81;5046700;28;20060;-71
2023/10/18 07:32:28;;;;;;;10.95;6.25;;;;;;;6.20;93.89;100710.78;5044196;28;20574;-72
2023/10/18 07:34:56;;;;;;;8.55;5.68;;;;;;;6.25;93.23;100702.38;5046503;28;20056;-73
2023/10/18 07:37:31;;;;;;;9.18;6.03;;;;;;;6.28;93.43;100695.00;5034022;28;20478;-72
2023/10/18 07:40:08;;;;;;;13.88;6.85;;;;;;;6.33;92.32;100690.19;5027211;28;20049;-72
2023/10/18 07:42:40;;;;;;;15.25;6.00;;;;;;;6.39;92.43;100689.00;5027464;28;20425;-72
2023/10/18 07:45:08;;;;;;;11.10;5.80;;;;;;;6.42;92.63;100690.63;5047299;28;20043;-72
2023/10/18 07:47:37;;;;;;;9.93;6.20;;;;;;;6.45;92.23;100682.34;5028279;28;20026;-72
2023/10/18 07:52:57;;;;;;;10.40;6.22;;;;;;;6.55;91.34;100681.72;5026896;28;20041;-72
2023/10/18 07:55:23;;;;;;;15.90;6.72;;;;;;;6.60;90.59;100685.03;5009326;28;20064;-72
2023/10/18 07:57:49;;;;;;;13.15;7.32;;;;;;;6.64;91.59;100672.22;5026862;28;20483;-71
2023/10/18 08:00:21;;;;;;;10.85;6.38;;;;;;;6.67;91.11;100665.72;5026967;28;20041;-72
2023/10/18 08:02:46;;;;;;;12.63;6.43;;;;;;;6.72;92.22;100678.03;5043615;28;20045;-72
2023/10/18 08:05:17;;;;;;;10.65;6.65;;;;;;;6.77;90.48;100672.34;5042142;28;20498;-72
2023/10/18 08:07:49;;;;;;;14.88;6.60;;;;;;;6.84;90.88;100673.72;5038784;28;20048;-71
2023/10/18 08:10:19;;;;;;;10.93;6.15;;;;;;;6.89;91.49;100667.06;5032896;28;20036;-72
2023/10/18 08:12:48;;;;;;;12.68;7.05;;;;;;;6.99;90.12;100666.50;5026755;28;20111;-72
2023/10/18 08:15:13;;;;;;;17.67;7.13;;;;;;;7.09;89.93;100674.00;5028404;28;20511;-73
2023/10/18 08:17:46;;;;;;;11.32;6.35;;;;;;;7.20;89.96;100672.47;5042098;28;20033;-73
2023/10/18 08:22:47;;;;;;;12.90;6.95;;;;;;;7.49;88.54;100666.09;5026521;28;20618;-72
2023/10/18 08:25:24;;;;;;;11.05;6.57;;;;;;;7.61;88.13;100659.94;5025527;28;20128;-72
2023/10/18 08:27:52;;;;;;;13.75;6.85;;;;;;;7.77;88.98;100650.84;5026504;28;20045;-72
2023/10/18 08:30:30;;;;;;;11.25;6.53;;;;;;;7.91;87.14;100659.81;5025608;28;20050;-72
2023/10/18 08:32:56;;;;;;;9.98;7.38;;;;;;;7.99;85.98;100658.47;5048340;28;20123;-72
2023/10/18 08:35:21;;;;;;;13.40;7.03;;;;;;;8.00;86.01;100658.34;5023598;28;20516;-72
2023/10/18 08:37:47;;;;;;;12.93;8.35;;;;;;;8.01;86.08;100648.38;5048159;28;20087;-72
2023/10/18 08:40:27;;;;;;;14.15;5.65;;;;;;;8.01;85.20;100637.53;5049906;28;20045;-75
2023/10/18 08:43:05;;;;;;;10.88;6.50;;;;;;;8.03;85.78;100631.06;5031473;28;20540;-72
2023/10/18 08:45:36;;;;;;;14.60;7.03;;;;;;;8.09;85.46;100625.25;5049212;28;20035;-72
2023/10/18 08:48:09;;;;;;;11.70;6.07;;;;;;;8.15;85.47;100632.09;5029407;28;20033;-72
2023/10/18 08:50:39;;;;;;;10.55;6.93;;;;;;;8.21;85.47;100628.09;5029175;28;20080;-72
2023/10/18 08:53:05;;;;;;;12.80;7.13;;;;;;;8.31;86.79;100621.13;5047894;28;20051;-72
2023/10/18 08:55:51;;;;;;;11.75;7.25;;;;;;;8.34;85.56;100610.91;5049682;28;20036;-72
2023/10/18 08:58:18;;;;;;;11.88;6.15;;;;;;;8.34;85.11;100613.63;5049434;28;20511;-72
2023/10/18 09:03:16;;;;;;;10.07;6.70;;;;;;;8.47;86.91;100611.00;5029237;28;20503;-72
2023/10/18 09:05:42;;;;;;;10.73;6.85;;;;;;;8.58;85.11;100608.47;5035956;28;20029;-72
2023/10/18 09:08:14;;;;;;;12.02;6.32;;;;;;;8.64;83.61;100602.59;5032538;28;20033;-72
2023/10/18 09:10:48;;;;;;;12.10;6.65;;;;;;;8.76;84.16;100603.59;5044097;28;20029;-72
2023/10/18 09:18:20;;;;;;;11.93;6.43;;;;;;;8.93;82.06;100584.31;5027611;28;20103;-72
2023/10/18 09:20:46;;;;;;;12.65;6.20;;;;;;;9.00;83.92;100587.47;5036314;28;20493;-72
2023/10/18 09:23:19;;;;;;;11.57;6.32;;;;;;;9.12;83.83;100581.16;5031079;28;20033;-72
2023/10/18 09:25:48;;;;;;;13.73;7.55;;;;;;;9.20;83.65;100576.06;5044391;28;20044;-72
2023/10/18 09:28:32;;;;;;;9.48;6.53;;;;;;;9.28;82.46;100574.63;5029173;28;20378;-72
2023/10/18 09:31:06;;;;;;;12.90;7.28;;;;;;;9.40;82.32;100571.06;5028749;28;20435;-71
2023/10/18 09:33:35;;;;;;;14.35;6.78;;;;;;;9.46;81.87;100573.31;5028336;28;20041;-71
2023/10/18 09:36:01;;;;;;;11.60;6.55;;;;;;;9.55;81.43;100563.66;5028494;28;20045;-72
2023/10/18 09:38:39;;;;;;;10.52;6.07;;;;;;;9.74;82.76;100563.16;5027266;28;20489;-72
2023/10/18 09:41:05;;;;;;;10.07;6.18;;;;;;;9.86;81.62;100563.13;5027782;28;20059;-72
2023/10/18 09:43:36;;;;;;;11.05;6.88;;;;;;;10.01;81.37;100555.69;5028209;28;20540;-72
2023/10/18 09:46:03;;;;;;;12.18;7.43;;;;;;;10.09;77.86;100553.28;5030607;28;20059;-72
2023/10/18 09:48:37;;;;;;;9.98;6.53;;;;;;;10.15;77.31;100549.22;5047716;28;20044;-72
2023/10/18 09:51:14;;;;;;;10.02;6.20;;;;;;;10.20;78.00;100528.84;5043182;28;20037;-70
2023/10/18 09:53:48;;;;;;;9.00;6.53;;;;;;;10.35;78.65;100532.31;5028933;28;20460;-70
2023/10/18 09:56:17;;;;;;;9.15;6.63;;;;;;;10.48;77.79;100519.47;5028852;28;20405;-71
2023/10/18 09:58:46;;;;;;;9.82;6.38;;;;;;;10.57;79.38;100509.75;5028479;28;20108;-69
2023/10/18 10:01:14;;;;;;;9.68;6.60;;;;;;;10.67;77.63;100512.59;5028623;28;20090;-70
2023/10/18 10:03:58;;;;;;;14.35;6.35;;;;;;;10.77;77.81;100504.59;5026167;28;20095;-70
2023/10/18 10:06:28;;;;;;;9.32;6.38;;;;;;;10.93;77.26;100505.97;5027805;28;20099;-71
2023/10/18 10:08:55;;;;;;;13.27;6.65;;;;;;;11.05;76.04;100503.25;5026799;28;20044;-70
2023/10/18 10:11:29;;;;;;;12.82;6.40;;;;;;;11.15;77.26;100502.41;5027321;28;20418;-70
2023/10/18 10:13:58;;;;;;;10.90;6.63;;;;;;;11.24;75.71;100484.47;5028174;28;20503;-70
2023/10/18 10:16:25;;;;;;;9.82;7.03;;;;;;;11.34;76.33;100480.00;5028021;28;20040;-70
2023/10/18 10:18:53;;;;;;;9.25;6.00;;;;;;;11.36;74.40;100479.88;5027153;28;20025;-70
2023/10/18 10:21:21;;;;;;;9.52;6.25;;;;;;;11.31;75.32;100482.97;5026403;28;20041;-70
2023/10/18 10:23:51;;;;;;;10.32;6.05;;;;;;;11.39;76.17;100474.19;5027884;28;20443;-70
2023/10/18 10:26:22;;;;;;;11.88;6.40;;;;;;;11.47;75.69;100455.34;5036347;28;20559;-70
2023/10/18 10:31:54;;;;;;;10.82;6.15;;;;;;;11.64;74.15;100448.50;5029748;28;20115;-70
2023/10/18 10:34:28;;;;;;;10.05;6.43;;;;;;;11.57;75.13;100431.81;5027004;28;20033;-70
2023/10/18 10:37:06;;;;;;;10.68;6.63;;;;;;;11.61;75.85;100429.66;5027165;28;20056;-70
2023/10/18 10:39:32;;;;;;;8.25;6.38;;;;;;;11.70;75.72;100429.78;5028338;28;20111;-70
2023/10/18 10:42:08;;;;;;;10.38;6.68;;;;;;;11.76;73.24;100422.97;5027731;28;20538;-71
2023/10/18 10:44:57;;;;;;;11.90;6.47;;;;;;;11.85;75.33;100415.91;5038524;28;20064;-70
2023/10/18 10:47:30;;;;;;;11.23;7.03;;;;;;;11.88;75.41;100416.47;5032657;28;20033;-69
2023/10/18 10:50:00;;;;;;;12.18;7.35;;;;;;;12.09;76.71;100421.13;5027166;28;20037;-70
2023/10/18 10:52:30;;;;;;;9.30;6.53;;;;;;;12.24;74.44;100406.16;5026908;28;20375;-70
2023/10/18 10:55:04;;;;;;;9.85;7.00;;;;;;;12.30;74.36;100407.47;5027679;28;20041;-69
2023/10/18 10:57:35;;;;;;;11.18;7.57;;;;;;;12.28;73.24;100401.31;5045375;28;20083;-70
2023/10/18 11:00:21;;;;;;;12.70;6.78;;;;;;;12.25;72.46;100402.44;5045777;28;20039;-70
2023/10/18 11:02:53;;;;;;;12.32;7.05;;;;;;;12.26;74.65;100393.25;5045158;28;20124;-71
2023/10/18 11:05:24;;;;;;;12.60;6.78;;;;;;;12.28;72.43;100374.91;5046554;28;20041;-70
2023/10/18 11:07:51;;;;;;;11.13;6.70;;;;;;;12.34;74.62;100377.06;5032730;28;20048;-71
2023/10/18 11:10:17;;;;;;;9.95;7.13;;;;;;;12.35;73.28;100373.34;5027359;28;20037;-70
2023/10/18 11:12:45;;;;;;;9.10;6.47;;;;;;;12.42;76.38;100363.63;5027537;28;20132;-71
2023/10/18 11:15:27;;;;;;;11.48;6.88;;;;;;;12.57;75.79;100352.38;5028380;28;20036;-71
2023/10/18 11:18:09;;;;;;;9.57;6.68;;;;;;;12.68;74.04;100346.81;5026733;28;20343;-71
2023/10/18 11:20:48;;;;;;;10.80;6.50;;;;;;;12.86;73.82;100353.34;5032923;28;20374;-71
2023/10/18 11:23:14;;;;;;;15.18;7.18;;;;;;;12.99;73.41;100348.50;5029267;28;20091;-71
2023/10/18 11:25:41;;;;;;;10.30;6.40;;;;;;;13.24;73.43;100336.25;5030871;28;20040;-72
2023/10/18 11:28:20;;;;;;;11.57;6.93;;;;;;;13.41;71.96;100331.97;5047846;28;20060;-70
2023/10/18 11:30:49;;;;;;;13.18;6.65;;;;;;;13.53;70.74;100319.03;5027333;28;20549;-70
2023/10/18 11:33:18;;;;;;;12.52;6.47;;;;;;;13.64;71.32;100320.75;5025478;28;20033;-70
2023/10/18 11:35:48;;;;;;;15.57;7.13;;;;;;;13.63;68.68;100313.56;5026424;28;20400;-70
2023/10/18 11:38:19;;;;;;;10.13;6.63;;;;;;;13.62;68.35;100315.44;5027086;28;20037;-70
2023/10/18 11:40:51;;;;;;;10.40;6.47;;;;;;;13.65;69.56;100314.28;5042768;28;20268;-69
2023/10/18 11:43:26;;;;;;;10.10;6.68;;;;;;;13.71;67.93;100308.25;5047163;28;20124;-70
2023/10/18 11:46:08;;;;;;;12.50;7.15;;;;;;;13.77;69.59;100313.13;5043332;28;20147;-70
2023/10/18 11:48:35;;;;;;;13.52;6.60;;;;;;;13.86;68.35;100312.25;5026173;28;20045;-70
2023/10/18 11:51:02;;;;;;;9.77;6.72;;;;;;;13.87;67.35;100291.25;5026428;28;20362;-70
2023/10/18 11:53:28;;;;;;;9.27;6.10;;;;;;;13.98;68.39;100282.88;5026660;28;20493;-70
2023/10/18 11:55:55;;;;;;;9.25;6.40;;;;;;;13.98;66.71;100269.19;5027267;28;20034;-70
2023/10/18 11:58:23;;;;;;;11.38;6.47;;;;;;;13.98;67.07;100259.13;5026755;28;20041;-70
2023/10/18 12:00:48;;;;;;;11.70;6.15;;;;;;;14.06;68.16;100257.53;5026698;28;20346;-71
2023/10/18 12:03:14;;;;;;;8.57;5.80;;;;;;;14.13;66.67;100258.66;5025498;28;20095;-70
2023/10/18 12:05:42;;;;;;;11.63;6.00;;;;;;;14.08;66.86;100245.41;5028851;28;20041;-70
2023/10/18 12:08:12;;;;;;;11.48;5.97;;;;;;;14.12;66.31;100245.97;5030132;28;20049;-69
2023/10/18 12:10:38;;;;;;;12.07;5.80;;;;;;;14.18;66.39;100231.72;5031167;28;20052;-70
2023/10/18 12:13:12;;;;;;;9.93;6.25;;;;;;;14.21;67.15;100234.16;5029919;28;20049;-70
2023/10/18 12:15:38;;;;;;;8.73;6.10;;;;;;;14.25;66.76;100227.38;5031003;28;20045;-70
2023/10/18 12:18:05;;;;;;;13.27;5.95;;;;;;;14.33;66.43;100218.41;5030873;28;20057;-70